sensor_id;sensor_type;location;lat;lon;timestamp;temperature;humidity
51007;DHT22;37034;47.886;-3.904;2023-02-01T00:01:43;10.50;97.10
51007;DHT22;37034;47.886;-3.904;2023-02-01T00:04:09;10.40;97.10
51007;DHT22;37034;47.886;-3.904;2023-02-01T00:06:35;10.40;97.10
51007;DHT22;37034;47.886;-3.904;2023-02-01T00:09:00;10.40;97.10
51007;DHT22;37034;47.886;-3.904;2023-02-01T00:11:26;10.30;97.10
51007;DHT22;37034;47.886;-3.904;2023-02-01T00:13:52;10.30;97.20
51007;DHT22;37034;47.886;-3.904;2023-02-01T00:16:20;10.30;97.20
51007;DHT22;37034;47.886;-3.904;2023-02-01T00:18:47;10.30;97.30
51007;DHT22;37034;47.886;-3.904;2023-02-01T00:21:16;10.30;97.30
51007;DHT22;37034;47.886;-3.904;2023-02-01T00:23:42;10.20;97.20
51007;DHT22;37034;47.886;-3.904;2023-02-01T00:26:14;10.20;97.10
51007;DHT22;37034;47.886;-3.904;2023-02-01T00:28:39;10.20;97.20
51007;DHT22;37034;47.886;-3.904;2023-02-01T00:31:05;10.20;97.10
51007;DHT22;37034;47.886;-3.904;2023-02-01T00:33:31;10.20;97.30
51007;DHT22;37034;47.886;-3.904;2023-02-01T00:35:58;10.20;97.50
51007;DHT22;37034;47.886;-3.904;2023-02-01T00:38:27;10.20;97.60
51007;DHT22;37034;47.886;-3.904;2023-02-01T00:40:53;10.30;97.60
51007;DHT22;37034;47.886;-3.904;2023-02-01T00:43:19;10.30;97.50
51007;DHT22;37034;47.886;-3.904;2023-02-01T00:45:48;10.30;97.40
51007;DHT22;37034;47.886;-3.904;2023-02-01T00:48:13;10.30;97.40
51007;DHT22;37034;47.886;-3.904;2023-02-01T00:50:42;10.30;97.30
51007;DHT22;37034;47.886;-3.904;2023-02-01T00:53:09;10.30;97.20
51007;DHT22;37034;47.886;-3.904;2023-02-01T00:55:35;10.30;97.10
51007;DHT22;37034;47.886;-3.904;2023-02-01T00:58:00;10.30;97.10
51007;DHT22;37034;47.886;-3.904;2023-02-01T01:00:26;10.20;96.90
51007;DHT22;37034;47.886;-3.904;2023-02-01T01:02:52;10.10;96.80
51007;DHT22;37034;47.886;-3.904;2023-02-01T01:05:18;10.10;96.70
51007;DHT22;37034;47.886;-3.904;2023-02-01T01:07:44;10.00;96.80
51007;DHT22;37034;47.886;-3.904;2023-02-01T01:10:10;10.00;96.90
51007;DHT22;37034;47.886;-3.904;2023-02-01T01:12:36;10.00;96.70
51007;DHT22;37034;47.886;-3.904;2023-02-01T01:15:02;9.90;96.80
51007;DHT22;37034;47.886;-3.904;2023-02-01T01:17:27;9.90;97.00
51007;DHT22;37034;47.886;-3.904;2023-02-01T01:19:53;9.80;97.10
51007;DHT22;37034;47.886;-3.904;2023-02-01T01:22:19;9.80;96.90
51007;DHT22;37034;47.886;-3.904;2023-02-01T01:24:44;9.80;96.90
51007;DHT22;37034;47.886;-3.904;2023-02-01T01:27:10;9.80;97.10
51007;DHT22;37034;47.886;-3.904;2023-02-01T01:29:36;9.80;97.20
51007;DHT22;37034;47.886;-3.904;2023-02-01T01:32:02;9.80;97.20
51007;DHT22;37034;47.886;-3.904;2023-02-01T01:34:27;9.80;97.20
51007;DHT22;37034;47.886;-3.904;2023-02-01T01:36:53;9.80;97.30
51007;DHT22;37034;47.886;-3.904;2023-02-01T01:39:18;9.90;97.30
51007;DHT22;37034;47.886;-3.904;2023-02-01T01:41:44;9.90;97.40
51007;DHT22;37034;47.886;-3.904;2023-02-01T01:47:14;9.90;97.40
51007;DHT22;37034;47.886;-3.904;2023-02-01T01:49:40;9.90;97.20
51007;DHT22;37034;47.886;-3.904;2023-02-01T01:52:06;9.90;97.20
51007;DHT22;37034;47.886;-3.904;2023-02-01T01:54:36;9.90;97.20
51007;DHT22;37034;47.886;-3.904;2023-02-01T01:57:12;9.90;97.20
51007;DHT22;37034;47.886;-3.904;2023-02-01T01:59:41;9.80;97.30
51007;DHT22;37034;47.886;-3.904;2023-02-01T02:02:09;9.80;97.20
51007;DHT22;37034;47.886;-3.904;2023-02-01T02:04:35;9.80;97.20
51007;DHT22;37034;47.886;-3.904;2023-02-01T02:07:04;9.90;97.40
51007;DHT22;37034;47.886;-3.904;2023-02-01T02:09:30;9.90;97.50
51007;DHT22;37034;47.886;-3.904;2023-02-01T02:11:56;9.90;97.50
51007;DHT22;37034;47.886;-3.904;2023-02-01T02:14:23;9.90;97.60
51007;DHT22;37034;47.886;-3.904;2023-02-01T02:17:16;9.90;97.50
51007;DHT22;37034;47.886;-3.904;2023-02-01T02:25:14;9.90;97.30
51007;DHT22;37034;47.886;-3.904;2023-02-01T02:30:37;9.90;97.20
51007;DHT22;37034;47.886;-3.904;2023-02-01T02:47:23;9.70;97.50
51007;DHT22;37034;47.886;-3.904;2023-02-01T02:49:56;9.70;97.50
51007;DHT22;37034;47.886;-3.904;2023-02-01T02:52:46;9.70;97.60
51007;DHT22;37034;47.886;-3.904;2023-02-01T02:55:35;9.80;97.70
51007;DHT22;37034;47.886;-3.904;2023-02-01T02:58:03;9.80;97.70
51007;DHT22;37034;47.886;-3.904;2023-02-01T03:00:48;9.80;97.70
51007;DHT22;37034;47.886;-3.904;2023-02-01T03:03:37;9.80;97.80
51007;DHT22;37034;47.886;-3.904;2023-02-01T03:06:22;9.90;97.90
51007;DHT22;37034;47.886;-3.904;2023-02-01T03:08:48;10.00;97.90
51007;DHT22;37034;47.886;-3.904;2023-02-01T03:11:15;10.00;98.00
51007;DHT22;37034;47.886;-3.904;2023-02-01T03:13:53;10.10;98.00
51007;DHT22;37034;47.886;-3.904;2023-02-01T03:16:20;10.10;98.00
51007;DHT22;37034;47.886;-3.904;2023-02-01T03:19:03;10.10;97.90
51007;DHT22;37034;47.886;-3.904;2023-02-01T03:21:50;10.20;97.90
51007;DHT22;37034;47.886;-3.904;2023-02-01T03:24:30;10.20;97.90
51007;DHT22;37034;47.886;-3.904;2023-02-01T03:30:06;10.30;97.90
51007;DHT22;37034;47.886;-3.904;2023-02-01T03:32:36;10.30;97.80
51007;DHT22;37034;47.886;-3.904;2023-02-01T03:37:56;10.30;97.90
51007;DHT22;37034;47.886;-3.904;2023-02-01T03:40:25;10.40;97.90
51007;DHT22;37034;47.886;-3.904;2023-02-01T03:42:55;10.40;97.80
51007;DHT22;37034;47.886;-3.904;2023-02-01T03:45:34;10.40;97.80
51007;DHT22;37034;47.886;-3.904;2023-02-01T03:48:03;10.40;97.90
51007;DHT22;37034;47.886;-3.904;2023-02-01T03:50:30;10.50;97.90
51007;DHT22;37034;47.886;-3.904;2023-02-01T03:53:01;10.50;97.90
51007;DHT22;37034;47.886;-3.904;2023-02-01T03:55:29;10.50;97.80
51007;DHT22;37034;47.886;-3.904;2023-02-01T03:58:06;10.60;97.90
51007;DHT22;37034;47.886;-3.904;2023-02-01T04:00:32;10.60;97.80
51007;DHT22;37034;47.886;-3.904;2023-02-01T04:02:58;10.60;97.80
51007;DHT22;37034;47.886;-3.904;2023-02-01T04:05:23;10.60;97.80
51007;DHT22;37034;47.886;-3.904;2023-02-01T04:07:49;10.70;97.80
51007;DHT22;37034;47.886;-3.904;2023-02-01T04:10:15;10.70;97.80
51007;DHT22;37034;47.886;-3.904;2023-02-01T04:12:41;10.70;97.70
51007;DHT22;37034;47.886;-3.904;2023-02-01T04:15:07;10.60;97.70
51007;DHT22;37034;47.886;-3.904;2023-02-01T04:17:33;10.70;97.80
51007;DHT22;37034;47.886;-3.904;2023-02-01T04:19:59;10.70;97.90
51007;DHT22;37034;47.886;-3.904;2023-02-01T04:22:25;10.70;97.90
51007;DHT22;37034;47.886;-3.904;2023-02-01T04:24:51;10.70;97.80
51007;DHT22;37034;47.886;-3.904;2023-02-01T04:27:16;10.70;97.80
51007;DHT22;37034;47.886;-3.904;2023-02-01T04:29:42;10.80;97.80
51007;DHT22;37034;47.886;-3.904;2023-02-01T04:32:10;10.80;97.80
51007;DHT22;37034;47.886;-3.904;2023-02-01T04:34:36;10.70;97.70
51007;DHT22;37034;47.886;-3.904;2023-02-01T04:37:01;10.70;97.60
51007;DHT22;37034;47.886;-3.904;2023-02-01T04:39:28;10.70;97.70
51007;DHT22;37034;47.886;-3.904;2023-02-01T04:41:53;10.70;97.70
51007;DHT22;37034;47.886;-3.904;2023-02-01T04:44:19;10.70;97.70
51007;DHT22;37034;47.886;-3.904;2023-02-01T04:46:46;10.70;97.60
51007;DHT22;37034;47.886;-3.904;2023-02-01T04:49:13;10.70;97.60
51007;DHT22;37034;47.886;-3.904;2023-02-01T04:51:39;10.70;97.60
51007;DHT22;37034;47.886;-3.904;2023-02-01T04:54:05;10.70;97.70
51007;DHT22;37034;47.886;-3.904;2023-02-01T04:56:30;10.70;97.60
51007;DHT22;37034;47.886;-3.904;2023-02-01T04:58:56;10.70;97.70
51007;DHT22;37034;47.886;-3.904;2023-02-01T05:01:22;10.80;97.70
51007;DHT22;37034;47.886;-3.904;2023-02-01T05:03:50;10.70;97.80
51007;DHT22;37034;47.886;-3.904;2023-02-01T05:06:15;10.70;97.70
51007;DHT22;37034;47.886;-3.904;2023-02-01T05:08:41;10.70;97.60
51007;DHT22;37034;47.886;-3.904;2023-02-01T05:11:07;10.70;97.50
51007;DHT22;37034;47.886;-3.904;2023-02-01T05:13:52;10.70;97.50
51007;DHT22;37034;47.886;-3.904;2023-02-01T05:16:18;10.70;97.50
51007;DHT22;37034;47.886;-3.904;2023-02-01T05:18:43;10.70;97.60
51007;DHT22;37034;47.886;-3.904;2023-02-01T05:21:09;10.60;97.60
51007;DHT22;37034;47.886;-3.904;2023-02-01T05:23:35;10.70;97.70
51007;DHT22;37034;47.886;-3.904;2023-02-01T05:26:20;10.70;97.70
51007;DHT22;37034;47.886;-3.904;2023-02-01T05:28:46;10.70;97.60
51007;DHT22;37034;47.886;-3.904;2023-02-01T05:31:12;10.70;97.60
51007;DHT22;37034;47.886;-3.904;2023-02-01T05:33:37;10.70;97.50
51007;DHT22;37034;47.886;-3.904;2023-02-01T05:36:03;10.70;97.70
51007;DHT22;37034;47.886;-3.904;2023-02-01T05:38:29;10.70;97.50
51007;DHT22;37034;47.886;-3.904;2023-02-01T05:40:55;10.70;97.60
51007;DHT22;37034;47.886;-3.904;2023-02-01T05:43:21;10.70;97.60
51007;DHT22;37034;47.886;-3.904;2023-02-01T05:45:47;10.70;97.60
51007;DHT22;37034;47.886;-3.904;2023-02-01T05:48:13;10.70;97.50
51007;DHT22;37034;47.886;-3.904;2023-02-01T05:50:39;10.70;97.50
51007;DHT22;37034;47.886;-3.904;2023-02-01T05:53:04;10.70;97.50
51007;DHT22;37034;47.886;-3.904;2023-02-01T05:55:30;10.70;97.50
51007;DHT22;37034;47.886;-3.904;2023-02-01T05:57:56;10.80;97.60
51007;DHT22;37034;47.886;-3.904;2023-02-01T06:00:22;10.80;97.50
51007;DHT22;37034;47.886;-3.904;2023-02-01T06:02:48;10.80;97.50
51007;DHT22;37034;47.886;-3.904;2023-02-01T06:05:13;10.80;97.50
51007;DHT22;37034;47.886;-3.904;2023-02-01T06:07:39;10.80;97.50
51007;DHT22;37034;47.886;-3.904;2023-02-01T06:10:05;10.80;97.30
51007;DHT22;37034;47.886;-3.904;2023-02-01T06:12:31;10.70;97.30
51007;DHT22;37034;47.886;-3.904;2023-02-01T06:14:57;10.70;97.20
51007;DHT22;37034;47.886;-3.904;2023-02-01T06:17:24;10.70;97.20
51007;DHT22;37034;47.886;-3.904;2023-02-01T06:19:50;10.70;97.20
51007;DHT22;37034;47.886;-3.904;2023-02-01T06:22:16;10.70;97.60
51007;DHT22;37034;47.886;-3.904;2023-02-01T06:24:42;10.70;97.20
51007;DHT22;37034;47.886;-3.904;2023-02-01T06:27:08;10.70;97.30
51007;DHT22;37034;47.886;-3.904;2023-02-01T06:29:34;10.70;97.00
51007;DHT22;37034;47.886;-3.904;2023-02-01T06:32:00;10.80;97.00
51007;DHT22;37034;47.886;-3.904;2023-02-01T06:34:26;10.80;97.10
51007;DHT22;37034;47.886;-3.904;2023-02-01T06:36:51;10.80;97.20
51007;DHT22;37034;47.886;-3.904;2023-02-01T06:39:17;10.80;97.10
51007;DHT22;37034;47.886;-3.904;2023-02-01T06:41:46;10.80;97.10
51007;DHT22;37034;47.886;-3.904;2023-02-01T06:44:12;10.80;97.30
51007;DHT22;37034;47.886;-3.904;2023-02-01T06:46:38;10.90;97.30
51007;DHT22;37034;47.886;-3.904;2023-02-01T06:49:04;10.90;97.30
51007;DHT22;37034;47.886;-3.904;2023-02-01T06:51:29;10.90;97.20
51007;DHT22;37034;47.886;-3.904;2023-02-01T06:53:56;10.90;97.20
51007;DHT22;37034;47.886;-3.904;2023-02-01T06:56:22;10.90;97.10
51007;DHT22;37034;47.886;-3.904;2023-02-01T06:58:48;10.90;97.00
51007;DHT22;37034;47.886;-3.904;2023-02-01T07:01:14;11.00;97.00
51007;DHT22;37034;47.886;-3.904;2023-02-01T07:03:40;11.00;97.10
51007;DHT22;37034;47.886;-3.904;2023-02-01T07:06:07;10.90;97.10
51007;DHT22;37034;47.886;-3.904;2023-02-01T07:08:34;10.90;97.10
51007;DHT22;37034;47.886;-3.904;2023-02-01T07:11:08;10.90;97.00
51007;DHT22;37034;47.886;-3.904;2023-02-01T07:13:35;10.90;97.00
51007;DHT22;37034;47.886;-3.904;2023-02-01T07:16:02;10.90;97.10
51007;DHT22;37034;47.886;-3.904;2023-02-01T07:18:29;10.90;97.20
51007;DHT22;37034;47.886;-3.904;2023-02-01T07:20:55;10.90;97.20
51007;DHT22;37034;47.886;-3.904;2023-02-01T07:23:22;10.90;97.10
51007;DHT22;37034;47.886;-3.904;2023-02-01T07:25:47;10.90;97.10
51007;DHT22;37034;47.886;-3.904;2023-02-01T07:28:13;10.90;97.10
51007;DHT22;37034;47.886;-3.904;2023-02-01T07:30:39;10.90;97.00
51007;DHT22;37034;47.886;-3.904;2023-02-01T07:33:06;10.90;96.70
51007;DHT22;37034;47.886;-3.904;2023-02-01T07:35:32;10.80;96.70
51007;DHT22;37034;47.886;-3.904;2023-02-01T07:37:58;10.80;96.70
51007;DHT22;37034;47.886;-3.904;2023-02-01T07:40:24;10.70;96.60
51007;DHT22;37034;47.886;-3.904;2023-02-01T07:42:57;10.70;96.70
51007;DHT22;37034;47.886;-3.904;2023-02-01T07:45:23;10.60;96.70
51007;DHT22;37034;47.886;-3.904;2023-02-01T07:47:51;10.60;96.90
51007;DHT22;37034;47.886;-3.904;2023-02-01T07:50:17;10.50;96.70
51007;DHT22;37034;47.886;-3.904;2023-02-01T07:52:42;10.50;96.70
51007;DHT22;37034;47.886;-3.904;2023-02-01T07:55:08;10.50;96.90
51007;DHT22;37034;47.886;-3.904;2023-02-01T07:57:34;10.40;96.70
51007;DHT22;37034;47.886;-3.904;2023-02-01T08:00:00;10.40;96.70
51007;DHT22;37034;47.886;-3.904;2023-02-01T08:02:57;10.40;96.70
51007;DHT22;37034;47.886;-3.904;2023-02-01T08:05:23;10.40;96.80
51007;DHT22;37034;47.886;-3.904;2023-02-01T08:07:49;10.40;96.90
51007;DHT22;37034;47.886;-3.904;2023-02-01T08:10:16;10.40;96.90
51007;DHT22;37034;47.886;-3.904;2023-02-01T08:12:42;10.40;96.90
51007;DHT22;37034;47.886;-3.904;2023-02-01T08:15:08;10.30;97.00
51007;DHT22;37034;47.886;-3.904;2023-02-01T08:17:33;10.40;97.10
51007;DHT22;37034;47.886;-3.904;2023-02-01T08:19:59;10.40;97.00
51007;DHT22;37034;47.886;-3.904;2023-02-01T08:22:25;10.50;97.10
51007;DHT22;37034;47.886;-3.904;2023-02-01T08:24:50;10.50;97.10
51007;DHT22;37034;47.886;-3.904;2023-02-01T08:27:17;10.50;97.00
51007;DHT22;37034;47.886;-3.904;2023-02-01T08:29:43;10.50;97.00
51007;DHT22;37034;47.886;-3.904;2023-02-01T08:32:09;10.50;96.90
51007;DHT22;37034;47.886;-3.904;2023-02-01T08:34:34;10.50;96.90
51007;DHT22;37034;47.886;-3.904;2023-02-01T08:37:00;10.50;96.90
51007;DHT22;37034;47.886;-3.904;2023-02-01T08:39:26;10.50;97.00
51007;DHT22;37034;47.886;-3.904;2023-02-01T08:41:52;10.50;97.10
51007;DHT22;37034;47.886;-3.904;2023-02-01T08:44:36;10.60;97.20
51007;DHT22;37034;47.886;-3.904;2023-02-01T08:47:03;10.60;97.20
51007;DHT22;37034;47.886;-3.904;2023-02-01T08:49:29;10.60;97.20
51007;DHT22;37034;47.886;-3.904;2023-02-01T08:51:55;10.70;97.40
51007;DHT22;37034;47.886;-3.904;2023-02-01T08:54:21;10.70;97.40
51007;DHT22;37034;47.886;-3.904;2023-02-01T08:56:47;10.80;97.40
51007;DHT22;37034;47.886;-3.904;2023-02-01T08:59:12;10.90;97.40
51007;DHT22;37034;47.886;-3.904;2023-02-01T09:01:38;10.90;97.40
51007;DHT22;37034;47.886;-3.904;2023-02-01T09:04:04;11.00;97.30
51007;DHT22;37034;47.886;-3.904;2023-02-01T09:06:29;11.10;97.40
51007;DHT22;37034;47.886;-3.904;2023-02-01T09:08:55;11.10;97.40
51007;DHT22;37034;47.886;-3.904;2023-02-01T09:11:21;11.20;97.50
51007;DHT22;37034;47.886;-3.904;2023-02-01T09:13:48;11.20;97.50
51007;DHT22;37034;47.886;-3.904;2023-02-01T09:16:14;11.30;97.50
51007;DHT22;37034;47.886;-3.904;2023-02-01T09:18:39;11.40;97.50
51007;DHT22;37034;47.886;-3.904;2023-02-01T09:21:06;11.40;97.40
51007;DHT22;37034;47.886;-3.904;2023-02-01T09:23:32;11.50;97.40
51007;DHT22;37034;47.886;-3.904;2023-02-01T09:26:01;11.60;97.50
51007;DHT22;37034;47.886;-3.904;2023-02-01T09:28:27;11.60;97.40
51007;DHT22;37034;47.886;-3.904;2023-02-01T09:30:59;11.70;97.20
51007;DHT22;37034;47.886;-3.904;2023-02-01T09:33:26;11.70;97.10
51007;DHT22;37034;47.886;-3.904;2023-02-01T09:36:00;11.70;97.20
51007;DHT22;37034;47.886;-3.904;2023-02-01T09:38:26;11.70;97.20
51007;DHT22;37034;47.886;-3.904;2023-02-01T09:40:52;11.80;97.20
51007;DHT22;37034;47.886;-3.904;2023-02-01T09:48:45;11.90;97.10
51007;DHT22;37034;47.886;-3.904;2023-02-01T09:51:27;12.00;96.90
51007;DHT22;37034;47.886;-3.904;2023-02-01T09:54:18;12.00;97.10
51007;DHT22;37034;47.886;-3.904;2023-02-01T09:57:00;12.00;97.10
51007;DHT22;37034;47.886;-3.904;2023-02-01T09:59:40;12.10;97.00
51007;DHT22;37034;47.886;-3.904;2023-02-01T10:02:25;12.10;97.00
51007;DHT22;37034;47.886;-3.904;2023-02-01T10:04:55;12.10;97.00
51007;DHT22;37034;47.886;-3.904;2023-02-01T10:10:30;12.20;97.10
51007;DHT22;37034;47.886;-3.904;2023-02-01T10:13:34;12.30;97.00
51007;DHT22;37034;47.886;-3.904;2023-02-01T10:16:20;12.30;96.90
51007;DHT22;37034;47.886;-3.904;2023-02-01T10:21:45;12.40;97.00
51007;DHT22;37034;47.886;-3.904;2023-02-01T10:24:21;12.40;97.00
51007;DHT22;37034;47.886;-3.904;2023-02-01T10:27:23;12.40;97.00
51007;DHT22;37034;47.886;-3.904;2023-02-01T10:29:45;12.50;96.80
51007;DHT22;37034;47.886;-3.904;2023-02-01T10:32:31;12.50;96.90
51007;DHT22;37034;47.886;-3.904;2023-02-01T10:35:15;12.50;97.00
51007;DHT22;37034;47.886;-3.904;2023-02-01T10:37:43;12.60;97.00
51007;DHT22;37034;47.886;-3.904;2023-02-01T10:40:24;12.70;97.00
51007;DHT22;37034;47.886;-3.904;2023-02-01T10:42:59;12.70;96.90
51007;DHT22;37034;47.886;-3.904;2023-02-01T10:45:29;12.70;96.80
51007;DHT22;37034;47.886;-3.904;2023-02-01T10:47:57;12.70;96.80
51007;DHT22;37034;47.886;-3.904;2023-02-01T10:50:40;12.80;96.90
51007;DHT22;37034;47.886;-3.904;2023-02-01T10:53:21;12.90;97.00
51007;DHT22;37034;47.886;-3.904;2023-02-01T10:55:53;12.90;96.70
51007;DHT22;37034;47.886;-3.904;2023-02-01T10:58:25;13.00;96.70
51007;DHT22;37034;47.886;-3.904;2023-02-01T11:00:58;13.00;96.70
51007;DHT22;37034;47.886;-3.904;2023-02-01T11:06:37;13.10;96.10
51007;DHT22;37034;47.886;-3.904;2023-02-01T11:11:54;13.10;96.20
51007;DHT22;37034;47.886;-3.904;2023-02-01T11:16:54;13.20;96.10
51007;DHT22;37034;47.886;-3.904;2023-02-01T11:19:20;13.20;95.60
51007;DHT22;37034;47.886;-3.904;2023-02-01T11:21:58;13.30;95.90
51007;DHT22;37034;47.886;-3.904;2023-02-01T11:24:34;13.20;95.70
51007;DHT22;37034;47.886;-3.904;2023-02-01T11:27:05;13.20;96.00
51007;DHT22;37034;47.886;-3.904;2023-02-01T11:29:43;13.30;95.80
51007;DHT22;37034;47.886;-3.904;2023-02-01T11:32:12;13.30;95.90
51007;DHT22;37034;47.886;-3.904;2023-02-01T11:34:43;13.40;95.60
51007;DHT22;37034;47.886;-3.904;2023-02-01T11:37:24;13.40;95.50
51007;DHT22;37034;47.886;-3.904;2023-02-01T11:40:01;13.30;95.60
51007;DHT22;37034;47.886;-3.904;2023-02-01T11:42:28;13.40;95.70
51007;DHT22;37034;47.886;-3.904;2023-02-01T11:45:18;13.40;95.70
51007;DHT22;37034;47.886;-3.904;2023-02-01T11:47:44;13.50;95.60
51007;DHT22;37034;47.886;-3.904;2023-02-01T11:50:22;13.50;95.50
51007;DHT22;37034;47.886;-3.904;2023-02-01T11:53:08;13.50;95.70
51007;DHT22;37034;47.886;-3.904;2023-02-01T11:55:47;13.50;95.50
51007;DHT22;37034;47.886;-3.904;2023-02-01T12:10:18;13.60;95.10
51007;DHT22;37034;47.886;-3.904;2023-02-01T12:20:51;13.60;95.00
51007;DHT22;37034;47.886;-3.904;2023-02-01T12:32:07;13.70;94.70
51007;DHT22;37034;47.886;-3.904;2023-02-01T12:35:09;13.70;94.80
51007;DHT22;37034;47.886;-3.904;2023-02-01T12:46:14;13.70;94.60
51007;DHT22;37034;47.886;-3.904;2023-02-01T12:48:53;13.80;94.90
51007;DHT22;37034;47.886;-3.904;2023-02-01T12:51:29;13.90;94.70
51007;DHT22;37034;47.886;-3.904;2023-02-01T12:54:19;14.00;94.50
51007;DHT22;37034;47.886;-3.904;2023-02-01T12:57:02;14.00;94.20
51007;DHT22;37034;47.886;-3.904;2023-02-01T12:59:47;14.00;94.00
51007;DHT22;37034;47.886;-3.904;2023-02-01T13:02:28;13.90;93.50
51007;DHT22;37034;47.886;-3.904;2023-02-01T13:07:48;13.80;93.30
51007;DHT22;37034;47.886;-3.904;2023-02-01T13:10:36;13.90;93.50
51007;DHT22;37034;47.886;-3.904;2023-02-01T13:13:25;13.90;93.10
51007;DHT22;37034;47.886;-3.904;2023-02-01T13:16:06;14.00;92.70
51007;DHT22;37034;47.886;-3.904;2023-02-01T13:18:39;14.10;92.80
51007;DHT22;37034;47.886;-3.904;2023-02-01T13:21:25;14.20;93.30
51007;DHT22;37034;47.886;-3.904;2023-02-01T13:23:52;14.20;92.60
51007;DHT22;37034;47.886;-3.904;2023-02-01T13:26:19;14.30;92.90
51007;DHT22;37034;47.886;-3.904;2023-02-01T13:28:51;14.10;92.90
51007;DHT22;37034;47.886;-3.904;2023-02-01T13:34:03;14.10;92.70
51007;DHT22;37034;47.886;-3.904;2023-02-01T13:36:52;14.20;92.70
51007;DHT22;37034;47.886;-3.904;2023-02-01T13:42:12;14.20;91.60
51007;DHT22;37034;47.886;-3.904;2023-02-01T13:44:42;14.10;92.40
51007;DHT22;37034;47.886;-3.904;2023-02-01T13:47:39;14.10;91.80
51007;DHT22;37034;47.886;-3.904;2023-02-01T13:50:30;14.10;91.30
51007;DHT22;37034;47.886;-3.904;2023-02-01T13:55:43;14.00;91.10
51007;DHT22;37034;47.886;-3.904;2023-02-01T13:58:30;14.00;91.60
51007;DHT22;37034;47.886;-3.904;2023-02-01T14:03:44;14.00;91.10
51007;DHT22;37034;47.886;-3.904;2023-02-01T14:06:17;14.10;91.50
51007;DHT22;37034;47.886;-3.904;2023-02-01T14:08:44;14.10;91.80
51007;DHT22;37034;47.886;-3.904;2023-02-01T14:11:34;14.00;91.60
51007;DHT22;37034;47.886;-3.904;2023-02-01T14:19:35;14.00;91.30
51007;DHT22;37034;47.886;-3.904;2023-02-01T14:24:54;13.80;91.30
51007;DHT22;37034;47.886;-3.904;2023-02-01T14:27:30;13.80;91.20
51007;DHT22;37034;47.886;-3.904;2023-02-01T14:30:04;13.70;91.40
51007;DHT22;37034;47.886;-3.904;2023-02-01T14:32:33;13.80;91.50
51007;DHT22;37034;47.886;-3.904;2023-02-01T14:35:04;13.70;91.60
51007;DHT22;37034;47.886;-3.904;2023-02-01T14:37:37;13.90;91.60
51007;DHT22;37034;47.886;-3.904;2023-02-01T14:40:06;14.00;91.70
51007;DHT22;37034;47.886;-3.904;2023-02-01T14:42:49;14.00;91.10
51007;DHT22;37034;47.886;-3.904;2023-02-01T14:53:13;14.20;91.00
51007;DHT22;37034;47.886;-3.904;2023-02-01T15:01:26;14.20;91.10
51007;DHT22;37034;47.886;-3.904;2023-02-01T15:04:11;14.20;91.30
51007;DHT22;37034;47.886;-3.904;2023-02-01T15:09:16;14.20;91.50
51007;DHT22;37034;47.886;-3.904;2023-02-01T15:17:37;14.20;91.00
51007;DHT22;37034;47.886;-3.904;2023-02-01T15:20:13;14.10;91.40
51007;DHT22;37034;47.886;-3.904;2023-02-01T15:22:40;14.20;91.60
51007;DHT22;37034;47.886;-3.904;2023-02-01T15:25:17;14.20;91.40
51007;DHT22;37034;47.886;-3.904;2023-02-01T15:27:43;14.20;91.40
51007;DHT22;37034;47.886;-3.904;2023-02-01T15:30:26;14.30;91.40
51007;DHT22;37034;47.886;-3.904;2023-02-01T15:33:15;14.30;91.30
51007;DHT22;37034;47.886;-3.904;2023-02-01T15:35:52;14.20;91.30
51007;DHT22;37034;47.886;-3.904;2023-02-01T15:38:35;14.20;91.10
51007;DHT22;37034;47.886;-3.904;2023-02-01T15:41:03;14.10;91.30
51007;DHT22;37034;47.886;-3.904;2023-02-01T15:43:32;14.10;91.20
51007;DHT22;37034;47.886;-3.904;2023-02-01T15:46:00;14.00;91.00
51007;DHT22;37034;47.886;-3.904;2023-02-01T15:48:32;13.90;91.30
51007;DHT22;37034;47.886;-3.904;2023-02-01T15:51:00;13.90;91.10
51007;DHT22;37034;47.886;-3.904;2023-02-01T15:53:27;13.90;91.10
51007;DHT22;37034;47.886;-3.904;2023-02-01T15:55:59;13.80;91.00
51007;DHT22;37034;47.886;-3.904;2023-02-01T15:58:26;13.80;90.90
51007;DHT22;37034;47.886;-3.904;2023-02-01T16:00:57;13.80;91.00
51007;DHT22;37034;47.886;-3.904;2023-02-01T16:06:00;13.70;90.60
51007;DHT22;37034;47.886;-3.904;2023-02-01T16:08:28;13.60;90.50
51007;DHT22;37034;47.886;-3.904;2023-02-01T16:11:00;13.50;90.10
51007;DHT22;37034;47.886;-3.904;2023-02-01T16:13:27;13.50;90.70
51007;DHT22;37034;47.886;-3.904;2023-02-01T16:15:53;13.40;90.40
51007;DHT22;37034;47.886;-3.904;2023-02-01T16:18:19;13.30;90.20
51007;DHT22;37034;47.886;-3.904;2023-02-01T16:20:46;13.10;90.40
51007;DHT22;37034;47.886;-3.904;2023-02-01T16:23:12;13.10;90.40
51007;DHT22;37034;47.886;-3.904;2023-02-01T16:25:39;13.20;90.30
51007;DHT22;37034;47.886;-3.904;2023-02-01T16:28:05;13.10;90.50
51007;DHT22;37034;47.886;-3.904;2023-02-01T16:30:31;13.10;90.60
51007;DHT22;37034;47.886;-3.904;2023-02-01T16:32:59;13.10;90.10
51007;DHT22;37034;47.886;-3.904;2023-02-01T16:35:35;13.00;90.00
51007;DHT22;37034;47.886;-3.904;2023-02-01T16:38:04;12.90;90.00
51007;DHT22;37034;47.886;-3.904;2023-02-01T16:40:37;13.00;90.00
51007;DHT22;37034;47.886;-3.904;2023-02-01T16:43:15;13.00;90.20
51007;DHT22;37034;47.886;-3.904;2023-02-01T16:45:42;13.00;90.30
51007;DHT22;37034;47.886;-3.904;2023-02-01T16:48:16;13.00;90.00
51007;DHT22;37034;47.886;-3.904;2023-02-01T16:50:43;12.90;90.00
51007;DHT22;37034;47.886;-3.904;2023-02-01T16:53:13;12.90;90.00
51007;DHT22;37034;47.886;-3.904;2023-02-01T16:55:41;13.00;90.30
51007;DHT22;37034;47.886;-3.904;2023-02-01T16:58:09;13.00;90.00
51007;DHT22;37034;47.886;-3.904;2023-02-01T17:00:35;12.90;89.10
51007;DHT22;37034;47.886;-3.904;2023-02-01T17:03:04;12.80;90.00
51007;DHT22;37034;47.886;-3.904;2023-02-01T17:05:35;12.90;90.10
51007;DHT22;37034;47.886;-3.904;2023-02-01T17:08:06;12.90;90.20
51007;DHT22;37034;47.886;-3.904;2023-02-01T17:10:32;12.90;90.00
51007;DHT22;37034;47.886;-3.904;2023-02-01T17:12:57;12.90;90.10
51007;DHT22;37034;47.886;-3.904;2023-02-01T17:15:31;13.00;90.30
51007;DHT22;37034;47.886;-3.904;2023-02-01T17:17:59;13.00;90.30
51007;DHT22;37034;47.886;-3.904;2023-02-01T17:20:37;13.10;90.30
51007;DHT22;37034;47.886;-3.904;2023-02-01T17:23:03;13.10;90.20
51007;DHT22;37034;47.886;-3.904;2023-02-01T17:25:29;13.20;90.10
51007;DHT22;37034;47.886;-3.904;2023-02-01T17:27:56;13.20;90.20
51007;DHT22;37034;47.886;-3.904;2023-02-01T17:30:21;13.20;90.00
51007;DHT22;37034;47.886;-3.904;2023-02-01T17:32:47;13.20;90.10
51007;DHT22;37034;47.886;-3.904;2023-02-01T17:35:20;13.20;90.20
51007;DHT22;37034;47.886;-3.904;2023-02-01T17:38:24;13.20;90.30
51007;DHT22;37034;47.886;-3.904;2023-02-01T17:40:50;13.20;90.40
51007;DHT22;37034;47.886;-3.904;2023-02-01T17:43:22;13.20;90.50
51007;DHT22;37034;47.886;-3.904;2023-02-01T17:46:13;13.20;90.50
51007;DHT22;37034;47.886;-3.904;2023-02-01T17:48:47;13.20;90.50
51007;DHT22;37034;47.886;-3.904;2023-02-01T17:51:25;13.20;90.40
51007;DHT22;37034;47.886;-3.904;2023-02-01T17:53:54;13.20;90.60